TimeCDT,TemperatureF,Dew PointF,Humidity,Sea Level PressureIn,VisibilityMPH,Wind Direction,Wind SpeedMPH,Gust SpeedMPH,PrecipitationIn,Events,Conditions,WindDirDegrees,DateUTC
12:15 AM,32.0,30.2,93,29.80,7.0,North,17.3,24.2,N/A,,Overcast,360,2013-03-10 06:15:00
12:35 AM,32.0,30.2,93,29.82,7.0,North,18.4,24.2,N/A,,Overcast,350,2013-03-10 06:35:00
12:55 AM,32.0,30.4,94,29.82,7.0,North,16.1,26.5,N/A,,Overcast,360,2013-03-10 06:55:00
1:15 AM,32.0,30.6,94,29.81,7.0,North,17.3,27.6,N/A,,Overcast,350,2013-03-10 07:15:00
1:35 AM,32.0,30.6,94,29.82,7.0,North,16.1,24.2,N/A,,Overcast,350,2013-03-10 07:35:00
1:55 AM,32.0,30.2,93,29.85,3.0,North,17.3,25.3,N/A,Snow,Light Snow,350,2013-03-10 07:55:00
3:15 AM,31.6,30.2,94,29.83,1.5,North,19.6,27.6,N/A,Snow,Light Snow,350,2013-03-10 08:15:00
3:35 AM,31.3,30.2,96,29.83,1.8,North,21.9,27.6,N/A,Snow,Light Snow,350,2013-03-10 08:35:00
3:55 AM,31.1,30.2,96,29.83,2.0,North,23.0,28.8,N/A,Snow,Light Snow,350,2013-03-10 08:55:00
4:15 AM,31.1,30.0,96,29.79,1.5,North,28.8,33.4,N/A,Snow,Light Snow,350,2013-03-10 09:15:00
4:35 AM,31.1,30.0,96,29.82,2.5,North,21.9,31.1,N/A,,Overcast,350,2013-03-10 09:35:00
4:55 AM,31.6,30.0,94,29.86,4.0,North,21.9,27.6,N/A,Snow,Light Snow,350,2013-03-10 09:55:00
5:15 AM,30.7,29.1,94,29.85,2.5,NNW,24.2,33.4,N/A,Snow,Light Snow,340,2013-03-10 10:15:00
5:35 AM,30.2,28.8,94,29.88,3.0,North,21.9,29.9,N/A,Snow,Light Snow,350,2013-03-10 10:35:00
5:55 AM,28.6,27.0,94,29.88,1.5,NNW,27.6,33.4,N/A,Snow,Light Snow,340,2013-03-10 10:55:00
6:15 AM,27.3,25.9,94,29.90,1.8,NNW,17.3,25.3,N/A,Snow,Light Snow,340,2013-03-10 11:15:00
7:35 AM,25.3,23.9,94,29.91,0.5,NNW,25.3,38.0,N/A,Snow,Snow,340,2013-03-10 12:35:00
7:55 AM,24.8,23.7,96,29.91,0.5,NNW,26.5,36.8,N/A,Snow,Snow,340,2013-03-10 12:55:00
8:15 AM,24.6,23.4,95,29.90,0.5,NNW,26.5,33.4,N/A,Snow,Light Snow,340,2013-03-10 13:15:00
8:35 AM,24.4,23.4,96,29.91,-9999.0,North,29.9,35.7,N/A,,Unknown,350,2013-03-10 13:35:00
8:55 AM,24.4,23.0,94,29.95,-9999.0,NNW,23.0,34.5,N/A,,Unknown,340,2013-03-10 13:55:00
9:15 AM,24.3,23.0,95,29.93,-9999.0,NNW,25.3,34.5,N/A,,Unknown,340,2013-03-10 14:15:00
9:35 AM,23.9,22.6,95,29.93,-9999.0,NNW,24.2,34.5,N/A,,Unknown,340,2013-03-10 14:35:00
9:55 AM,23.4,21.9,94,29.93,-9999.0,NNW,29.9,35.7,N/A,,Overcast,340,2013-03-10 14:55:00
10:15 AM,23.5,22.1,94,29.94,-9999.0,NNW,24.2,34.5,N/A,,Overcast,340,2013-03-10 15:15:00
10:35 AM,23.9,22.1,93,29.94,-9999.0,NNW,25.3,32.2,N/A,,Overcast,340,2013-03-10 15:35:00
10:55 AM,24.3,22.6,94,29.96,-9999.0,NNW,26.5,32.2,N/A,,Overcast,340,2013-03-10 15:55:00
11:15 AM,24.8,23.0,93,29.95,-9999.0,NNW,23.0,33.4,N/A,,Unknown,340,2013-03-10 16:15:00
11:35 AM,24.8,23.0,93,29.96,-9999.0,North,27.6,33.4,N/A,,Overcast,350,2013-03-10 16:35:00
11:55 AM,25.0,23.2,93,29.96,-9999.0,NNW,23.0,33.4,N/A,,Overcast,340,2013-03-10 16:55:00
12:15 PM,25.5,23.7,93,29.95,-9999.0,North,24.2,32.2,N/A,,Overcast,350,2013-03-10 17:15:00
12:35 PM,25.7,23.4,91,29.96,-9999.0,North,28.8,39.1,N/A,,Overcast,350,2013-03-10 17:35:00
12:55 PM,25.7,23.0,89,29.96,-9999.0,North,23.0,32.2,N/A,,Unknown,350,2013-03-10 17:55:00
1:15 PM,25.7,23.0,89,29.96,-9999.0,North,27.6,35.7,N/A,,Overcast,350,2013-03-10 18:15:00
1:35 PM,25.3,22.6,89,29.96,-9999.0,North,27.6,34.5,N/A,,Overcast,350,2013-03-10 18:35:00
1:55 PM,24.8,22.3,90,29.96,-9999.0,NNW,23.0,34.5,N/A,,Unknown,340,2013-03-10 18:55:00
2:15 PM,25.2,22.6,90,29.96,-9999.0,North,26.5,34.5,N/A,,Unknown,350,2013-03-10 19:15:00
2:35 PM,24.4,21.6,89,29.95,-9999.0,NNW,24.2,33.4,N/A,,Overcast,340,2013-03-10 19:35:00
2:55 PM,24.3,21.2,88,29.94,-9999.0,NNW,25.3,35.7,N/A,,Overcast,340,2013-03-10 19:55:00
3:15 PM,23.9,21.2,89,29.93,-9999.0,NNW,27.6,35.7,N/A,,Overcast,340,2013-03-10 20:15:00
3:35 PM,23.7,20.5,87,29.95,-9999.0,NNW,24.2,33.4,N/A,,Overcast,340,2013-03-10 20:35:00
3:55 PM,23.9,20.3,86,29.95,-9999.0,NNW,25.3,31.1,N/A,,Overcast,340,2013-03-10 20:55:00
4:15 PM,23.5,20.1,87,29.95,-9999.0,NNW,25.3,32.2,N/A,,Overcast,330,2013-03-10 21:15:00
4:35 PM,23.7,20.1,86,29.95,-9999.0,NNW,23.0,33.4,N/A,,Overcast,330,2013-03-10 21:35:00
4:55 PM,23.7,20.1,86,29.94,-9999.0,NNW,26.5,32.2,N/A,,Overcast,340,2013-03-10 21:55:00
5:15 PM,23.5,20.3,87,29.94,-9999.0,NNW,25.3,33.4,N/A,,Overcast,330,2013-03-10 22:15:00
5:35 PM,23.5,20.3,87,29.94,-9999.0,NNW,25.3,33.4,N/A,,Overcast,330,2013-03-10 22:35:00
5:55 PM,23.4,20.3,88,29.94,-9999.0,NNW,26.5,32.2,N/A,,Overcast,330,2013-03-10 22:55:00
6:15 PM,23.4,20.3,88,29.95,-9999.0,NNW,24.2,29.9,N/A,,Overcast,330,2013-03-10 23:15:00
6:35 PM,23.5,20.7,89,29.95,-9999.0,NNW,25.3,32.2,N/A,,Overcast,330,2013-03-10 23:35:00
6:55 PM,23.0,20.7,91,29.96,-9999.0,NNW,23.0,33.4,N/A,,Overcast,330,2013-03-10 23:55:00
7:15 PM,23.0,21.0,92,29.98,-9999.0,NNW,21.9,33.4,N/A,,Overcast,330,2013-03-11 00:15:00
7:35 PM,23.2,20.7,90,29.98,-9999.0,NNW,24.2,28.8,N/A,,Overcast,330,2013-03-11 00:35:00
7:55 PM,23.5,20.5,88,29.97,3.0,NNW,23.0,29.9,N/A,,Overcast,330,2013-03-11 00:55:00
8:15 PM,23.5,20.3,87,29.97,7.0,NNW,20.7,28.8,N/A,,Overcast,330,2013-03-11 01:15:00
8:35 PM,23.7,20.1,86,29.97,5.0,NNW,23.0,29.9,N/A,,Overcast,340,2013-03-11 01:35:00
8:55 PM,23.5,20.1,87,29.97,7.0,NNW,19.6,28.8,N/A,,Overcast,340,2013-03-11 01:55:00
9:15 PM,23.4,19.8,86,29.98,10.0,NNW,16.1,27.6,N/A,,Overcast,340,2013-03-11 02:15:00
9:35 PM,23.5,19.8,85,29.98,10.0,NNW,19.6,24.2,N/A,,Overcast,340,2013-03-11 02:35:00
9:55 PM,23.4,19.8,86,29.98,10.0,NNW,18.4,28.8,N/A,,Overcast,340,2013-03-11 02:55:00
10:15 PM,23.0,19.4,86,29.98,10.0,NNW,18.4,-,N/A,,Overcast,340,2013-03-11 03:15:00
10:35 PM,23.0,19.4,86,29.98,10.0,NNW,21.9,26.5,N/A,,Overcast,340,2013-03-11 03:35:00
10:55 PM,22.6,18.5,84,29.98,10.0,NNW,18.4,25.3,N/A,,Overcast,340,2013-03-11 03:55:00
11:15 PM,22.1,18.1,85,29.98,10.0,NNW,17.3,28.8,N/A,,Overcast,340,2013-03-11 04:15:00
11:35 PM,21.7,17.6,84,29.98,10.0,NNW,17.3,23.0,N/A,,Overcast,340,2013-03-11 04:35:00
11:55 PM,21.7,17.6,84,29.97,10.0,NNW,21.9,27.6,N/A,,Overcast,340,2013-03-11 04:55:00
12:15 AM,21.2,17.2,85,29.97,10.0,North,20.7,26.5,N/A,,Overcast,350,2013-03-11 05:15:00
12:35 AM,21.2,17.1,84,29.97,10.0,NNW,18.4,23.0,N/A,,Overcast,340,2013-03-11 05:35:00
12:55 AM,21.0,17.1,85,29.96,10.0,NNW,21.9,28.8,N/A,,Overcast,340,2013-03-11 05:55:00